Woudenberg, Netherlands
Current Conditions -  °F | °C
As of 9:25 PM on Wednesday 28 Jan 2015 (Local Time) from EHDL Reporting Station
Broken Clouds Broken Clouds  
Wind Chill: 29°   Ceiling: 6200
Heat Index: 37°   Visibility: 6mi
Dew Point: 32°   Wind: 13mph
Humidity: 81%   Direction: 250°WSW
Pressure: 29.38"   Gusts: NA
Location:  52.08°N, 5.42°E
Report Text: EHDL 282025Z AUTO 25011KT 9999 FEW033 BKN062 03/M00 Q0995 BLU
Loading
Personal Weather Stations






























Interactive Weather Map New forecast layout! Learn more

10-Day Weather Forecast

Advertisements
Track Severe Weather on mobile